createdAt,value
2022-12-03T00:02:04.363Z,37.83
2022-12-03T00:08:37.522Z,36.38
2022-12-03T00:11:47.971Z,36.08
2022-12-03T00:14:55.911Z,37.10
2022-12-03T00:18:18.958Z,36.45
2022-12-03T00:21:24.892Z,34.22
2022-12-03T00:24:31.553Z,35.10
2022-12-03T00:27:36.618Z,34.92
2022-12-03T00:30:55.566Z,34.85
2022-12-03T00:34:07.583Z,34.45
2022-12-03T00:37:10.794Z,35.45
2022-12-03T00:40:26.025Z,35.90
2022-12-03T00:43:33.181Z,34.75
2022-12-03T00:46:36.947Z,34.97
2022-12-03T00:49:49.629Z,35.60
2022-12-03T00:52:57.071Z,35.35
2022-12-03T00:56:05.634Z,36.38
2022-12-03T00:59:15.111Z,35.88
2022-12-03T01:02:29.255Z,36.47
2022-12-03T01:05:56.824Z,37.08
2022-12-03T01:09:02.841Z,35.95
2022-12-03T01:12:06.190Z,34.92
2022-12-03T01:15:10.348Z,36.25
2022-12-03T01:18:13.521Z,35.33
2022-12-03T01:21:18.588Z,35.35
2022-12-03T01:24:22.501Z,34.22
2022-12-03T01:27:25.809Z,34.90
2022-12-03T01:30:29.090Z,34.65
2022-12-03T01:33:31.281Z,33.30
2022-12-03T01:36:35.924Z,34.30
2022-12-03T01:39:39.651Z,35.13
2022-12-03T01:42:44.133Z,32.42
2022-12-03T01:45:47.331Z,33.35
2022-12-03T01:48:53.742Z,33.25
2022-12-03T01:52:00.285Z,33.67
2022-12-03T01:55:07.292Z,33.10
2022-12-03T01:58:13.894Z,34.28
2022-12-03T02:01:19.815Z,33.58
2022-12-03T02:04:24.443Z,34.50
2022-12-03T02:07:31.421Z,33.38
2022-12-03T02:10:37.273Z,34.65
2022-12-03T02:13:40.768Z,34.90
2022-12-03T02:16:45.023Z,35.00
2022-12-03T02:19:48.993Z,35.42
2022-12-03T02:23:02.025Z,35.33
2022-12-03T02:26:06.782Z,34.15
2022-12-03T02:29:25.194Z,35.05
2022-12-03T02:32:28.431Z,34.08
2022-12-03T02:35:34.550Z,34.90
2022-12-03T02:38:40.042Z,36.90
2022-12-03T02:42:02.232Z,36.60
2022-12-03T02:45:10.247Z,34.92
2022-12-03T02:48:17.067Z,36.25
2022-12-03T02:51:20.848Z,36.65
2022-12-03T02:54:24.635Z,35.47
2022-12-03T02:57:29.250Z,34.95
2022-12-03T03:00:32.931Z,35.97
2022-12-03T03:03:37.572Z,36.22
2022-12-03T03:06:41.211Z,36.05
2022-12-03T03:09:44.933Z,33.20
2022-12-03T03:12:49.667Z,35.72
2022-12-03T03:15:53.168Z,35.67
2022-12-03T03:18:56.581Z,35.75
2022-12-03T03:22:00.050Z,38.97
2022-12-03T03:25:03.527Z,36.53
2022-12-03T03:28:09.144Z,37.50
2022-12-03T03:31:14.581Z,37.33
2022-12-03T03:34:18.292Z,37.65
2022-12-03T03:37:21.676Z,38.58
2022-12-03T03:40:25.605Z,37.28
2022-12-03T03:43:33.261Z,39.78
2022-12-03T03:46:37.724Z,38.85
2022-12-03T03:49:41.068Z,40.50
2022-12-03T03:52:45.554Z,39.60
2022-12-03T03:55:49.265Z,39.50
2022-12-03T03:58:54.031Z,39.33
2022-12-03T04:02:14.576Z,41.03
2022-12-03T04:05:20.869Z,40.05
2022-12-03T04:08:24.166Z,41.75
2022-12-03T04:11:51.374Z,41.92
2022-12-03T04:14:56.991Z,41.40
2022-12-03T04:18:27.320Z,42.67
2022-12-03T04:21:47.734Z,42.33
2022-12-03T04:24:51.183Z,44.22
2022-12-03T04:28:12.357Z,43.80
2022-12-03T04:31:35.338Z,43.15
2022-12-03T04:34:56.530Z,44.75
2022-12-03T04:38:01.481Z,44.30
2022-12-03T04:41:07.327Z,43.00
2022-12-03T04:44:28.805Z,45.70
2022-12-03T04:47:39.730Z,45.00
2022-12-03T04:50:43.214Z,45.75
2022-12-03T04:53:46.575Z,45.80
2022-12-03T04:56:49.766Z,45.67
2022-12-03T04:59:52.925Z,44.72
2022-12-03T05:02:57.490Z,45.88
2022-12-03T05:06:00.723Z,46.40
2022-12-03T05:09:04.105Z,48.47
2022-12-03T05:12:07.702Z,48.33
2022-12-03T05:15:12.075Z,49.10
2022-12-03T05:18:16.635Z,49.00
2022-12-03T05:21:20.109Z,50.88
2022-12-03T05:24:23.337Z,51.53
2022-12-03T05:27:26.896Z,51.63
2022-12-03T05:30:30.127Z,51.88
2022-12-03T05:33:37.305Z,53.80
2022-12-03T05:36:44.209Z,53.10
2022-12-03T05:39:47.350Z,53.50
2022-12-03T05:42:56.980Z,54.13
2022-12-03T05:46:00.296Z,55.58
2022-12-03T05:49:07.643Z,55.30
2022-12-03T05:52:10.789Z,54.92
2022-12-03T05:55:13.964Z,56.33
2022-12-03T05:58:17.192Z,55.85
2022-12-03T06:01:20.388Z,56.67
2022-12-03T06:04:24.921Z,55.67
2022-12-03T06:07:28.219Z,54.25
2022-12-03T06:10:31.790Z,57.00
2022-12-03T06:13:35.085Z,59.20
2022-12-03T06:16:38.486Z,57.83
2022-12-03T06:19:43.332Z,58.90
2022-12-03T06:22:48.937Z,58.30
2022-12-03T06:25:53.806Z,57.85
2022-12-03T06:28:57.244Z,58.92
2022-12-03T06:32:00.572Z,60.03
2022-12-03T06:35:05.958Z,60.53
2022-12-03T06:38:09.746Z,59.80
2022-12-03T06:41:13.076Z,59.33
2022-12-03T06:44:16.542Z,59.75
2022-12-03T06:47:20.075Z,60.75
2022-12-03T06:50:24.804Z,63.05
2022-12-03T06:53:28.157Z,59.28
2022-12-03T06:56:36.796Z,59.90
2022-12-03T06:59:42.577Z,60.22
2022-12-03T07:02:45.909Z,58.75
2022-12-03T07:05:51.410Z,59.17
2022-12-03T07:08:54.772Z,61.67
2022-12-03T07:11:58.019Z,60.47
2022-12-03T07:15:01.303Z,60.55
2022-12-03T07:18:05.856Z,63.05
2022-12-03T07:21:10.696Z,60.92
2022-12-03T07:24:14.171Z,59.92
2022-12-03T07:27:17.660Z,60.63
2022-12-03T07:30:21.140Z,61.75
2022-12-03T07:33:24.559Z,59.63
2022-12-03T07:36:29.512Z,59.53
2022-12-03T07:39:33.081Z,59.42
2022-12-03T07:42:38.931Z,61.00
2022-12-03T07:45:42.900Z,62.20
2022-12-03T07:48:46.154Z,61.83
2022-12-03T07:51:54.573Z,60.75
2022-12-03T07:54:59.994Z,60.92
2022-12-03T07:58:03.367Z,62.00
2022-12-03T08:01:06.960Z,61.30
2022-12-03T08:04:11.393Z,61.88
2022-12-03T08:07:16.220Z,64.50
2022-12-03T08:10:19.971Z,62.63
2022-12-03T08:13:23.334Z,61.33
2022-12-03T08:16:28.014Z,63.85
2022-12-03T08:19:31.275Z,61.80
2022-12-03T08:22:36.117Z,63.65
2022-12-03T08:25:39.568Z,62.90
2022-12-03T08:28:42.952Z,62.53
2022-12-03T08:31:49.842Z,63.15
2022-12-03T08:34:53.393Z,66.55
2022-12-03T08:41:40.521Z,65.10
2022-12-03T08:44:43.965Z,67.00
2022-12-03T08:51:21.609Z,64.90
2022-12-03T08:54:27.176Z,68.45
2022-12-03T08:57:32.816Z,67.03
2022-12-03T09:00:36.172Z,64.38
2022-12-03T09:03:43.532Z,66.75
2022-12-03T09:06:47.052Z,63.47
2022-12-03T09:09:52.505Z,64.57
2022-12-03T09:12:55.794Z,65.28
2022-12-03T09:15:59.024Z,63.55
2022-12-03T09:19:03.010Z,63.22
2022-12-03T09:22:06.420Z,64.32
2022-12-03T09:25:11.479Z,65.88
2022-12-03T09:28:14.784Z,63.58
2022-12-03T09:31:18.781Z,61.38
2022-12-03T09:34:22.143Z,63.50
2022-12-03T09:37:25.514Z,62.38
2022-12-03T09:40:30.576Z,63.58
2022-12-03T09:44:02.861Z,61.15
2022-12-03T09:47:00.756Z,61.22
2022-12-03T09:50:04.500Z,62.28
2022-12-03T09:53:07.890Z,66.57
2022-12-03T09:56:19.670Z,63.80
2022-12-03T09:59:25.367Z,67.57
2022-12-03T10:02:31.721Z,63.70
2022-12-03T10:05:35.867Z,64.45
2022-12-03T10:08:39.348Z,62.00
2022-12-03T10:11:49.545Z,66.10
2022-12-03T10:14:54.170Z,63.00
2022-12-03T10:17:58.930Z,66.22
2022-12-03T10:21:28.291Z,67.22
2022-12-03T10:24:34.317Z,73.13
2022-12-03T10:27:57.607Z,108.63
2022-12-03T10:31:14.891Z,77.65
2022-12-03T10:37:59.260Z,61.38
2022-12-03T10:41:22.493Z,68.50
2022-12-03T10:44:30.505Z,64.90
2022-12-03T10:47:33.868Z,65.80
2022-12-03T10:50:37.589Z,61.72
2022-12-03T10:53:42.517Z,60.80
2022-12-03T10:56:47.377Z,59.83
2022-12-03T10:59:53.236Z,56.97
2022-12-03T11:02:57.459Z,56.08
2022-12-03T11:06:02.761Z,57.88
2022-12-03T11:09:09.043Z,68.97
2022-12-03T11:15:47.096Z,58.58
2022-12-03T11:19:02.558Z,59.40
2022-12-03T11:22:46.874Z,58.97
2022-12-03T11:25:51.689Z,57.47
2022-12-03T11:28:56.514Z,56.60
2022-12-03T11:35:35.859Z,54.67
2022-12-03T11:39:05.252Z,57.40
2022-12-03T11:46:10.534Z,65.03
2022-12-03T11:49:52.089Z,62.72
2022-12-03T11:53:00.868Z,59.22
2022-12-03T11:59:29.973Z,60.35
2022-12-03T12:02:34.267Z,58.08
2022-12-03T12:05:39.407Z,58.17
2022-12-03T12:08:56.255Z,59.92
2022-12-03T12:12:19.809Z,58.22
2022-12-03T12:23:23.130Z,55.85
2022-12-03T12:26:26.631Z,52.65
2022-12-03T12:29:30.046Z,54.72
2022-12-03T12:32:35.529Z,52.65
2022-12-03T12:35:41.941Z,55.13
2022-12-03T12:38:47.435Z,55.78
2022-12-03T12:41:52.948Z,55.53
2022-12-03T12:44:57.805Z,57.88
2022-12-03T12:48:08.640Z,56.75
2022-12-03T12:54:39.412Z,59.25
2022-12-03T12:57:51.615Z,55.75
2022-12-03T13:00:58.153Z,56.85
2022-12-03T13:04:02.967Z,53.45
2022-12-03T13:10:39.810Z,52.60
2022-12-03T13:17:15.294Z,50.10
2022-12-03T13:27:23.028Z,58.45
2022-12-03T13:30:31.098Z,57.58
2022-12-03T13:33:34.892Z,58.75
2022-12-03T13:36:43.637Z,55.53
2022-12-03T13:39:50.949Z,57.20
2022-12-03T13:42:55.969Z,56.88
2022-12-03T13:49:26.271Z,58.55
2022-12-03T13:52:34.099Z,57.70
2022-12-03T13:55:41.680Z,57.35
2022-12-03T13:58:46.452Z,59.70
2022-12-03T14:05:11.352Z,58.50
2022-12-03T14:08:14.667Z,56.25
2022-12-03T14:11:32.000Z,59.05
2022-12-03T14:14:40.118Z,56.53
2022-12-03T14:17:43.668Z,58.80
2022-12-03T14:20:47.026Z,60.20
2022-12-03T14:23:51.678Z,59.83
2022-12-03T14:26:54.946Z,59.58
2022-12-03T14:30:00.053Z,57.28
2022-12-03T14:33:03.407Z,59.35
2022-12-03T14:36:07.332Z,59.13
2022-12-03T14:39:12.385Z,61.97
2022-12-03T14:42:18.049Z,60.58
2022-12-03T14:45:36.575Z,63.13
2022-12-03T14:48:40.444Z,67.38
2022-12-03T14:51:45.212Z,65.38
2022-12-03T14:54:49.071Z,67.25
2022-12-03T14:57:52.957Z,66.63
2022-12-03T15:00:59.741Z,65.03
2022-12-03T15:04:06.781Z,64.35
2022-12-03T15:07:10.539Z,64.18
2022-12-03T15:10:19.171Z,66.20
2022-12-03T15:20:15.610Z,62.28
2022-12-03T15:23:20.089Z,63.47
2022-12-03T15:26:23.408Z,66.18
2022-12-03T15:29:26.816Z,64.78
2022-12-03T15:32:38.452Z,65.32
2022-12-03T15:35:48.809Z,64.85
2022-12-03T15:38:54.658Z,63.92
2022-12-03T15:41:58.592Z,64.53
2022-12-03T15:45:02.500Z,72.85
2022-12-03T15:48:07.739Z,69.53
2022-12-03T15:51:11.539Z,77.07
2022-12-03T16:00:59.256Z,67.22
2022-12-03T16:04:04.930Z,71.45
2022-12-03T16:07:09.436Z,70.93
2022-12-03T16:10:13.638Z,69.38
2022-12-03T16:13:21.587Z,71.28
2022-12-03T16:16:31.807Z,70.10
2022-12-03T16:25:59.157Z,68.80
2022-12-03T16:29:03.676Z,70.88
2022-12-03T16:32:17.583Z,71.30
2022-12-03T16:42:17.425Z,68.10
2022-12-03T16:49:05.817Z,100.50
2022-12-03T16:52:12.750Z,216.60
2022-12-03T16:55:19.202Z,148.50
2022-12-03T16:58:22.664Z,103.75
2022-12-03T17:01:26.093Z,197.15
2022-12-03T17:04:30.063Z,98.13
2022-12-03T17:07:35.027Z,100.72
2022-12-03T17:10:38.446Z,224.27
2022-12-03T17:13:42.940Z,489.92
2022-12-03T17:16:46.301Z,360.17
2022-12-03T17:19:50.347Z,211.95
2022-12-03T17:22:56.185Z,83.95
2022-12-03T17:26:00.584Z,124.78
2022-12-03T17:29:03.874Z,245.82
2022-12-03T17:32:07.559Z,92.35
2022-12-03T17:35:12.087Z,87.10
2022-12-03T17:38:18.258Z,96.15
2022-12-03T17:41:22.392Z,88.88
2022-12-03T17:44:27.093Z,78.22
2022-12-03T17:47:30.455Z,70.97
2022-12-03T17:50:33.911Z,84.20
2022-12-03T17:53:38.777Z,159.60
2022-12-03T17:56:43.536Z,86.60
2022-12-03T17:59:47.048Z,64.82
2022-12-03T18:02:50.664Z,71.88
2022-12-03T18:05:55.198Z,229.70
2022-12-03T18:09:00.655Z,125.45
2022-12-03T18:12:04.202Z,69.22
2022-12-03T18:15:08.705Z,55.10
2022-12-03T18:18:12.658Z,65.18
2022-12-03T18:21:19.468Z,194.18
2022-12-03T18:24:24.945Z,182.40
2022-12-03T18:27:28.792Z,64.88
2022-12-03T18:30:32.195Z,61.17
2022-12-03T18:33:35.586Z,93.07
2022-12-03T18:36:39.274Z,272.70
2022-12-03T18:39:46.949Z,131.98
2022-12-03T18:42:50.548Z,66.18
2022-12-03T18:45:54.287Z,67.82
2022-12-03T18:48:57.841Z,71.88
2022-12-03T18:52:02.626Z,77.10
2022-12-03T18:55:09.061Z,120.65
2022-12-03T18:58:12.416Z,55.42
2022-12-03T19:01:17.929Z,53.75
2022-12-03T19:04:21.606Z,57.22
2022-12-03T19:07:25.210Z,212.13
2022-12-03T19:10:30.341Z,60.17
2022-12-03T19:13:33.761Z,52.30
2022-12-03T19:16:37.755Z,54.35
2022-12-03T19:19:41.176Z,52.47
2022-12-03T19:22:44.489Z,160.27
2022-12-03T19:26:01.000Z,55.30
2022-12-03T19:29:04.700Z,52.53
2022-12-03T19:32:09.205Z,53.92
2022-12-03T19:35:12.821Z,52.55
2022-12-03T19:38:16.108Z,50.95
2022-12-03T19:41:22.039Z,54.78
2022-12-03T19:44:25.442Z,53.40
2022-12-03T19:47:29.051Z,51.13
2022-12-03T19:50:32.533Z,50.38
2022-12-03T19:53:36.936Z,53.13
2022-12-03T19:56:41.857Z,53.08
2022-12-03T19:59:45.889Z,54.05
2022-12-03T20:02:50.999Z,54.83
2022-12-03T20:05:55.005Z,56.70
2022-12-03T20:08:59.138Z,58.67
2022-12-03T20:12:04.854Z,66.72
2022-12-03T20:15:08.765Z,52.35
2022-12-03T20:18:13.688Z,52.15
2022-12-03T20:21:18.932Z,54.97
2022-12-03T20:24:22.422Z,60.00
2022-12-03T20:27:27.636Z,63.70
2022-12-03T20:30:31.014Z,69.68
2022-12-03T20:33:34.722Z,72.07
2022-12-03T20:36:39.413Z,64.80
2022-12-03T20:39:43.491Z,60.40
2022-12-03T20:42:49.839Z,55.40
2022-12-03T20:45:56.858Z,57.67
2022-12-03T20:49:02.949Z,51.65
2022-12-03T20:52:06.783Z,51.13
2022-12-03T20:55:11.109Z,50.38
2022-12-03T20:58:16.158Z,50.90
2022-12-03T21:01:22.340Z,53.13
2022-12-03T21:04:25.706Z,57.30
2022-12-03T21:07:29.133Z,54.25
2022-12-03T21:10:44.867Z,53.58
2022-12-03T21:13:49.789Z,51.88
2022-12-03T21:17:07.720Z,55.45
2022-12-03T21:20:16.595Z,51.97
2022-12-03T21:23:22.957Z,53.88
2022-12-03T21:26:26.804Z,51.00
2022-12-03T21:29:31.485Z,54.05
2022-12-03T21:32:34.916Z,52.00
2022-12-03T21:35:38.766Z,49.75
2022-12-03T21:38:42.232Z,57.67
2022-12-03T21:42:18.863Z,56.83
2022-12-03T21:45:11.482Z,53.38
2022-12-03T21:48:17.235Z,52.67
2022-12-03T21:51:21.333Z,52.53
2022-12-03T21:54:24.752Z,56.55
2022-12-03T21:57:28.070Z,53.55
2022-12-03T22:00:32.891Z,52.97
2022-12-03T22:03:36.687Z,51.92
2022-12-03T22:06:40.904Z,51.00
2022-12-03T22:09:44.114Z,50.22
2022-12-03T22:12:47.525Z,52.67
2022-12-03T22:15:52.385Z,52.97
2022-12-03T22:18:55.765Z,51.92
2022-12-03T22:22:00.059Z,50.67
2022-12-03T22:25:03.392Z,50.38
2022-12-03T22:28:08.083Z,51.00
2022-12-03T22:31:14.016Z,50.55
2022-12-03T22:34:17.512Z,52.22
2022-12-03T22:37:20.780Z,59.17
2022-12-03T22:40:26.348Z,50.85
2022-12-03T22:43:29.917Z,48.90
2022-12-03T22:46:34.738Z,47.38
2022-12-03T22:49:38.050Z,46.88
2022-12-03T22:52:41.435Z,46.05
2022-12-03T22:55:45.124Z,50.53
2022-12-03T22:58:48.404Z,51.47
2022-12-03T23:01:53.350Z,47.22
2022-12-03T23:04:57.073Z,47.05
2022-12-03T23:08:00.594Z,45.00
2022-12-03T23:11:03.970Z,43.92
2022-12-03T23:14:07.446Z,44.67
2022-12-03T23:17:12.612Z,45.95
2022-12-03T23:20:15.916Z,46.67
2022-12-03T23:23:20.663Z,46.20
2022-12-03T23:26:23.965Z,47.80
2022-12-03T23:29:27.289Z,46.25
2022-12-03T23:32:31.978Z,40.42
2022-12-03T23:35:35.487Z,40.78
2022-12-03T23:38:39.132Z,42.72
2022-12-03T23:41:42.419Z,42.38
2022-12-03T23:44:45.632Z,41.70
2022-12-03T23:47:54.995Z,44.75
2022-12-03T23:51:05.962Z,44.85
2022-12-03T23:54:12.259Z,42.45
2022-12-03T23:57:15.975Z,40.53
